createdAt,value
2019-03-16T00:00:13.300Z,48.67
2019-03-16T00:05:23.489Z,49.19
2019-03-16T00:10:32.868Z,49.12
2019-03-16T00:15:40.040Z,49.43
2019-03-16T00:20:48.321Z,49.15
2019-03-16T00:25:55.873Z,49.00
2019-03-16T00:31:03.168Z,49.25
2019-03-16T00:36:12.272Z,48.94
2019-03-16T00:41:23.208Z,49.60
2019-03-16T00:46:31.169Z,49.98
2019-03-16T00:51:38.898Z,50.14
2019-03-16T00:56:46.779Z,49.93
2019-03-16T01:01:55.645Z,50.10
2019-03-16T01:07:02.872Z,49.35
2019-03-16T01:12:11.578Z,50.66
2019-03-16T01:17:19.247Z,51.36
2019-03-16T01:22:28.114Z,51.23
2019-03-16T01:27:36.366Z,51.63
2019-03-16T01:32:45.724Z,52.70
2019-03-16T01:37:53.373Z,51.28
2019-03-16T01:43:00.336Z,51.73
2019-03-16T01:48:07.488Z,51.54
2019-03-16T01:53:16.610Z,52.23
2019-03-16T01:58:23.671Z,52.25
2019-03-16T02:03:30.346Z,52.84
2019-03-16T02:08:36.682Z,51.99
2019-03-16T02:13:42.599Z,52.77
2019-03-16T02:18:51.250Z,52.14
2019-03-16T02:23:57.993Z,52.66
2019-03-16T02:29:07.321Z,52.37
2019-03-16T02:34:15.305Z,52.67
2019-03-16T02:39:23.178Z,52.13
2019-03-16T02:44:31.759Z,52.70
2019-03-16T02:49:40.915Z,52.95
2019-03-16T02:54:48.091Z,52.48
2019-03-16T02:59:56.906Z,51.87
2019-03-16T03:05:03.574Z,52.79
2019-03-16T03:10:11.829Z,53.17
2019-03-16T03:15:18.089Z,53.23
2019-03-16T03:20:26.269Z,53.35
2019-03-16T03:25:33.358Z,53.23
2019-03-16T03:30:41.265Z,52.80
2019-03-16T03:35:48.429Z,52.72
2019-03-16T03:40:55.163Z,52.19
2019-03-16T03:46:02.399Z,53.18
2019-03-16T03:51:09.780Z,53.54
2019-03-16T03:56:17.039Z,54.11
2019-03-16T04:01:23.500Z,52.92
2019-03-16T04:06:29.720Z,53.47
2019-03-16T04:11:38.540Z,52.78
2019-03-16T04:16:46.948Z,54.68
2019-03-16T04:21:56.328Z,54.42
2019-03-16T04:27:16.093Z,54.38
2019-03-16T04:32:16.841Z,54.01
2019-03-16T04:37:25.325Z,54.90
2019-03-16T04:42:33.768Z,54.20
2019-03-16T04:47:40.925Z,54.35
2019-03-16T04:52:51.020Z,55.26
2019-03-16T04:57:57.064Z,54.75
2019-03-16T05:03:08.170Z,54.88
2019-03-16T05:08:16.489Z,56.10
2019-03-16T05:13:24.734Z,54.79
2019-03-16T05:18:32.883Z,55.51
2019-03-16T05:23:42.182Z,55.46
2019-03-16T05:28:49.465Z,54.58
2019-03-16T05:33:56.113Z,54.67
2019-03-16T05:39:03.502Z,55.54
2019-03-16T05:44:09.423Z,54.73
2019-03-16T05:49:16.003Z,55.29
2019-03-16T05:54:21.555Z,55.23
2019-03-16T05:59:27.318Z,55.36
2019-03-16T06:04:33.768Z,55.47
2019-03-16T06:09:39.401Z,55.97
2019-03-16T06:14:44.943Z,55.05
2019-03-16T06:19:50.534Z,55.27
2019-03-16T06:24:56.510Z,54.49
2019-03-16T06:30:02.644Z,53.88
2019-03-16T06:35:23.408Z,53.44
2019-03-16T06:40:17.125Z,54.22
2019-03-16T06:45:23.920Z,53.51
2019-03-16T06:50:30.061Z,53.77
2019-03-16T06:55:37.263Z,52.52
2019-03-16T07:00:43.059Z,53.25
2019-03-16T07:05:48.853Z,52.79
2019-03-16T07:10:54.637Z,53.27
2019-03-16T07:16:00.281Z,54.17
2019-03-16T07:21:07.602Z,53.96
2019-03-16T07:26:15.151Z,53.27
2019-03-16T07:31:21.334Z,52.91
2019-03-16T07:36:26.963Z,53.25
2019-03-16T07:41:34.505Z,53.17
2019-03-16T07:46:40.157Z,52.84
2019-03-16T07:51:46.269Z,53.54
2019-03-16T07:56:53.449Z,52.77
2019-03-16T08:01:59.328Z,52.95
2019-03-16T08:07:06.746Z,53.73
2019-03-16T08:12:14.005Z,53.68
2019-03-16T08:17:20.217Z,53.52
2019-03-16T08:22:27.398Z,52.18
2019-03-16T08:27:33.317Z,53.76
2019-03-16T08:32:40.510Z,53.52
2019-03-16T08:37:47.059Z,52.50
2019-03-16T08:42:52.721Z,52.21
2019-03-16T08:48:02.662Z,51.58
2019-03-16T08:53:10.190Z,50.76
2019-03-16T08:58:16.264Z,52.31
2019-03-16T09:03:22.499Z,49.69
2019-03-16T09:08:29.091Z,50.59
2019-03-16T09:13:35.518Z,49.75
2019-03-16T09:18:41.340Z,49.63
2019-03-16T09:23:47.382Z,49.14
2019-03-16T09:29:00.081Z,49.86
2019-03-16T09:34:03.644Z,49.04
2019-03-16T09:39:10.393Z,48.39
2019-03-16T09:44:16.751Z,48.14
2019-03-16T09:49:22.781Z,48.41
2019-03-16T09:54:29.606Z,46.99
2019-03-16T09:59:36.116Z,46.80
2019-03-16T10:04:43.441Z,47.14
2019-03-16T10:09:52.795Z,48.32
2019-03-16T10:14:59.369Z,47.10
2019-03-16T10:20:14.487Z,46.62
2019-03-16T10:25:21.017Z,45.61
2019-03-16T10:30:27.104Z,46.33
2019-03-16T10:35:34.534Z,46.21
2019-03-16T10:40:40.522Z,45.30
2019-03-16T10:45:46.174Z,45.00
2019-03-16T10:50:52.451Z,45.04
2019-03-16T10:56:00.238Z,44.68
2019-03-16T11:01:05.887Z,45.59
2019-03-16T11:06:11.907Z,46.06
2019-03-16T11:11:17.673Z,46.44
2019-03-16T11:16:23.616Z,45.01
2019-03-16T11:21:30.758Z,45.07
2019-03-16T11:26:38.477Z,45.76
2019-03-16T11:31:44.527Z,45.68
2019-03-16T11:36:52.213Z,47.51
2019-03-16T11:41:58.250Z,47.87
2019-03-16T11:47:04.440Z,46.90
2019-03-16T11:52:10.896Z,48.05
2019-03-16T11:57:17.672Z,47.76
2019-03-16T12:02:23.891Z,49.09
2019-03-16T12:07:29.682Z,49.40
2019-03-16T12:12:36.381Z,51.02
2019-03-16T12:17:45.709Z,54.17
2019-03-16T12:22:54.573Z,54.93
2019-03-16T12:28:01.329Z,55.86
2019-03-16T12:33:07.173Z,55.96
2019-03-16T12:38:12.839Z,57.67
2019-03-16T12:43:18.789Z,58.81
2019-03-16T12:48:25.384Z,59.16
2019-03-16T12:53:30.935Z,57.93
2019-03-16T12:58:37.849Z,59.40
2019-03-16T13:03:43.410Z,60.70
2019-03-16T13:08:49.039Z,61.00
2019-03-16T13:13:54.808Z,62.32
2019-03-16T13:19:00.420Z,61.89
2019-03-16T13:24:06.055Z,61.79
2019-03-16T13:29:11.949Z,62.41
2019-03-16T13:34:17.519Z,62.78
2019-03-16T13:39:25.022Z,61.62
2019-03-16T13:44:32.199Z,61.95
2019-03-16T13:49:37.780Z,61.83
2019-03-16T13:54:43.524Z,64.13
2019-03-16T13:59:49.609Z,62.29
2019-03-16T14:04:56.288Z,61.74
2019-03-16T14:10:05.160Z,62.77
2019-03-16T14:15:11.240Z,62.12
2019-03-16T14:20:17.630Z,61.96
2019-03-16T14:25:23.812Z,62.68
2019-03-16T14:30:40.855Z,61.86
2019-03-16T14:35:39.976Z,62.47
2019-03-16T14:40:45.752Z,61.19
2019-03-16T14:45:52.154Z,61.11
2019-03-16T14:50:57.941Z,60.82
2019-03-16T14:56:03.829Z,61.32
2019-03-16T15:01:13.299Z,61.54
2019-03-16T15:06:23.207Z,62.42
2019-03-16T15:11:30.655Z,61.50
2019-03-16T15:16:38.169Z,62.00
2019-03-16T15:21:43.928Z,62.01
2019-03-16T15:26:49.645Z,62.33
2019-03-16T15:31:56.519Z,61.93
2019-03-16T15:37:02.990Z,63.08
2019-03-16T15:42:08.912Z,62.23
2019-03-16T15:47:16.115Z,61.48
2019-03-16T15:52:21.821Z,61.68
2019-03-16T15:57:27.981Z,62.28
2019-03-16T16:02:34.506Z,62.37
2019-03-16T16:07:41.354Z,62.59
2019-03-16T16:12:46.913Z,62.83
2019-03-16T16:17:52.745Z,62.73
2019-03-16T16:22:59.095Z,62.50
2019-03-16T16:28:04.736Z,62.66
2019-03-16T16:33:10.568Z,63.11
2019-03-16T16:38:16.688Z,63.02
2019-03-16T16:43:22.550Z,63.07
2019-03-16T16:48:28.526Z,63.68
2019-03-16T16:53:34.825Z,63.39
2019-03-16T16:58:41.114Z,63.03
2019-03-16T17:03:48.965Z,63.19
2019-03-16T17:08:54.959Z,63.74
2019-03-16T17:14:02.370Z,64.12
2019-03-16T17:19:10.317Z,64.41
2019-03-16T17:24:18.026Z,64.38
2019-03-16T17:29:23.785Z,63.86
2019-03-16T17:34:30.630Z,63.47
2019-03-16T17:39:37.381Z,63.96
2019-03-16T17:44:43.517Z,64.68
2019-03-16T17:49:49.104Z,64.55
2019-03-16T17:54:54.933Z,64.69
2019-03-16T18:00:00.936Z,64.70
2019-03-16T18:05:09.396Z,64.92
2019-03-16T18:10:16.626Z,64.60
2019-03-16T18:15:22.858Z,65.63
2019-03-16T18:20:29.801Z,65.55
2019-03-16T18:25:37.995Z,65.69
2019-03-16T18:30:44.660Z,65.61
2019-03-16T18:35:50.670Z,66.85
2019-03-16T18:40:56.440Z,65.86
2019-03-16T18:46:03.957Z,65.98
2019-03-16T18:51:09.965Z,66.34
2019-03-16T18:56:15.899Z,65.35
2019-03-16T19:01:21.624Z,65.41
2019-03-16T19:06:29.611Z,65.45
2019-03-16T19:11:37.486Z,65.46
2019-03-16T19:16:44.178Z,65.24
2019-03-16T19:21:51.340Z,66.05
2019-03-16T19:26:58.162Z,65.49
2019-03-16T19:32:05.274Z,66.31
2019-03-16T19:37:12.169Z,65.22
2019-03-16T19:42:21.866Z,66.08
2019-03-16T19:47:29.874Z,66.18
2019-03-16T19:52:38.562Z,66.56
2019-03-16T19:57:46.311Z,66.15
2019-03-16T20:02:54.097Z,66.01
2019-03-16T20:08:00.039Z,65.98
2019-03-16T20:13:07.845Z,66.12
2019-03-16T20:18:14.317Z,65.34
2019-03-16T20:23:21.541Z,66.00
2019-03-16T20:28:29.643Z,65.52
2019-03-16T20:33:37.688Z,63.86
2019-03-16T20:38:44.393Z,64.89
2019-03-16T20:43:51.901Z,64.82
2019-03-16T20:49:03.483Z,64.80
2019-03-16T20:54:10.347Z,66.44
2019-03-16T20:59:19.232Z,66.26
2019-03-16T21:04:25.705Z,66.43
2019-03-16T21:09:31.576Z,65.97
2019-03-16T21:14:38.097Z,66.12
2019-03-16T21:19:45.978Z,66.58
2019-03-16T21:24:53.478Z,65.45
2019-03-16T21:29:59.319Z,65.54
2019-03-16T21:35:07.511Z,64.97
2019-03-16T21:40:14.831Z,64.65
2019-03-16T21:45:20.781Z,65.48
2019-03-16T21:50:31.442Z,65.18
2019-03-16T21:55:38.604Z,64.77
2019-03-16T22:00:45.001Z,64.06
2019-03-16T22:05:52.214Z,64.22
2019-03-16T22:10:57.879Z,64.32
2019-03-16T22:16:04.364Z,64.34
2019-03-16T22:21:11.385Z,64.09
2019-03-16T22:26:17.028Z,63.89
2019-03-16T22:31:22.583Z,63.25
2019-03-16T22:36:28.831Z,63.11
2019-03-16T22:41:34.496Z,62.42
2019-03-16T22:46:40.765Z,63.20
2019-03-16T22:51:46.498Z,63.54
2019-03-16T22:56:52.904Z,62.37
2019-03-16T23:01:59.104Z,62.90
2019-03-16T23:07:05.579Z,63.18
2019-03-16T23:12:12.567Z,62.38
2019-03-16T23:17:19.739Z,62.30
2019-03-16T23:22:27.615Z,62.80
2019-03-16T23:27:34.280Z,61.36
2019-03-16T23:32:40.594Z,61.70
2019-03-16T23:37:46.626Z,61.18
2019-03-16T23:42:53.113Z,61.20
2019-03-16T23:48:00.828Z,62.39
2019-03-16T23:53:08.047Z,62.43
2019-03-16T23:58:15.343Z,61.77
